Terminal Aerodrome Forecast
Issued by NWS

Home | Current Version | Previous Version | Text Only | Print | Product List | Glossary On
Versions: 1 2 3 4 5 6 7 8 9 10 11 12 13 14 15 16 17 18 19 20 21 22 23 24
000
FTUS45 KTFX 170000 CCA
TAFCTB
TAF COR
KCTB 170005Z 1700/1724 VRB05KT P6SM VCSH SCT025 BKN050
      TEMPO 1700/1704 5SM -SHSN BR BKN020
     FM170600 19007KT P6SM SCT005 BKN050
     FM171000 23008KT P6SM SCT050 BKN080
     FM171900 23010G20KT P6SM SCT040 BKN070=

USA.gov is the U.S. government's official web portal to all federal, state and local government web resources and services.